Time;durP1;ratioP1;P1;durP2;ratioP2;P2;SDS_P1;SDS_P2;PMS_P1;PMS_P2;Temp;Humidity;BMP_temperature;BMP_pressure;BME280_temperature;BME280_humidity;BME280_pressure;Samples;Min_cycle;Max_cycle;Signal;HPM_P1;HPM_P2
2023/01/28 00:01:26;;;;;;;;;29.75;26.25;;;;;;;;4906088;28;45391;-75
2023/01/28 00:03:54;;;;;;;;;21.25;20.25;;;;;;;;4898952;28;45640;-75
2023/01/28 00:06:19;;;;;;;;;26.50;19.00;;;;;;;;4906726;28;45449;-75
2023/01/28 00:08:45;;;;;;;;;26.75;25.50;;;;;;;;4904671;28;45608;-74
2023/01/28 00:11:11;;;;;;;;;32.25;28.75;;;;;;;;4901290;28;45659;-74
2023/01/28 00:13:36;;;;;;;;;15.75;14.75;;;;;;;;4903543;28;45466;-74
2023/01/28 00:16:03;;;;;;;;;19.50;18.50;;;;;;;;4907521;28;45343;-74
2023/01/28 00:18:29;;;;;;;;;25.00;22.50;;;;;;;;4906226;28;46326;-74
2023/01/28 00:21:05;;;;;;;;;25.25;23.00;;;;;;;;4899444;28;45646;-74
2023/01/28 00:23:32;;;;;;;;;29.75;29.75;;;;;;;;4898393;28;45468;-74
2023/01/28 00:25:58;;;;;;;;;27.25;24.25;;;;;;;;4907258;28;45720;-74
2023/01/28 00:28:24;;;;;;;;;28.50;23.25;;;;;;;;4908965;28;45319;-75
2023/01/28 00:30:49;;;;;;;;;22.75;20.25;;;;;;;;4904947;28;45474;-74
2023/01/28 00:33:14;;;;;;;;;24.00;22.75;;;;;;;;4907570;28;45318;-75
2023/01/28 00:35:39;;;;;;;;;24.00;20.00;;;;;;;;4904509;28;45541;-75
2023/01/28 00:38:05;;;;;;;;;15.00;13.50;;;;;;;;4903071;28;45369;-74
2023/01/28 00:40:30;;;;;;;;;26.50;22.00;;;;;;;;4906937;28;45616;-75
2023/01/28 00:42:55;;;;;;;;;26.25;22.75;;;;;;;;4884013;28;45331;-73
2023/01/28 00:45:21;;;;;;;;;24.25;22.00;;;;;;;;4898161;28;45463;-74
2023/01/28 00:47:47;;;;;;;;;27.25;25.50;;;;;;;;4901784;28;45365;-73
2023/01/28 00:50:12;;;;;;;;;29.75;24.75;;;;;;;;4902782;28;45403;-73
2023/01/28 00:52:38;;;;;;;;;23.50;22.00;;;;;;;;4909119;28;45462;-73
2023/01/28 00:55:03;;;;;;;;;19.75;16.75;;;;;;;;4898835;28;45364;-73
2023/01/28 00:57:28;;;;;;;;;21.75;20.50;;;;;;;;4894809;28;46117;-73
2023/01/28 00:59:54;;;;;;;;;29.50;26.50;;;;;;;;4888791;29;45327;-74
2023/01/28 01:02:19;;;;;;;;;27.25;19.00;;;;;;;;4881991;29;45399;-74
2023/01/28 01:04:53;;;;;;;;;17.25;17.25;;;;;;;;4895579;29;45332;-72
2023/01/28 01:07:19;;;;;;;;;37.00;27.00;;;;;;;;4899274;28;45411;-74
2023/01/28 01:09:44;;;;;;;;;32.25;23.75;;;;;;;;4899285;28;45408;-74
2023/01/28 01:12:09;;;;;;;;;20.25;19.50;;;;;;;;4898009;28;46567;-74
2023/01/28 01:14:34;;;;;;;;;27.00;21.25;;;;;;;;4899199;28;45597;-74
2023/01/28 01:17:00;;;;;;;;;21.50;20.75;;;;;;;;4889374;28;46282;-72
2023/01/28 01:19:27;;;;;;;;;27.00;21.75;;;;;;;;4899020;28;45432;-73
2023/01/28 01:21:52;;;;;;;;;18.75;18.75;;;;;;;;4882689;29;45384;-74
2023/01/28 01:24:17;;;;;;;;;20.00;18.00;;;;;;;;4897011;28;45433;-75
2023/01/28 01:26:43;;;;;;;;;22.00;17.75;;;;;;;;4883898;29;45289;-75
2023/01/28 01:29:08;;;;;;;;;18.00;15.50;;;;;;;;4895739;29;45404;-74
2023/01/28 01:31:34;;;;;;;;;25.75;22.50;;;;;;;;4884921;28;45377;-74
2023/01/28 01:33:59;;;;;;;;;28.50;20.00;;;;;;;;4897907;28;45488;-75
2023/01/28 01:36:24;;;;;;;;;25.25;22.25;;;;;;;;4898902;28;47068;-75
2023/01/28 01:38:53;;;;;;;;;23.75;16.75;;;;;;;;4898880;28;45498;-74
2023/01/28 01:41:22;;;;;;;;;22.50;18.75;;;;;;;;4897029;28;45407;-74
2023/01/28 01:43:47;;;;;;;;;23.00;18.50;;;;;;;;4900451;28;45446;-75
2023/01/28 01:46:13;;;;;;;;;15.25;14.25;;;;;;;;4898940;28;46397;-74
2023/01/28 01:48:39;;;;;;;;;22.50;20.50;;;;;;;;4899288;28;45470;-75
2023/01/28 01:51:09;;;;;;;;;27.50;18.00;;;;;;;;4899935;28;45416;-75
2023/01/28 01:53:37;;;;;;;;;12.75;11.50;;;;;;;;4897491;28;45336;-75
2023/01/28 01:56:04;;;;;;;;;14.50;12.00;;;;;;;;4898499;29;46148;-74
2023/01/28 01:58:32;;;;;;;;;17.50;16.00;;;;;;;;4899119;28;45372;-75
2023/01/28 02:00:58;;;;;;;;;18.25;18.00;;;;;;;;4896841;28;45373;-74
2023/01/28 02:03:43;;;;;;;;;21.50;20.50;;;;;;;;4898887;28;45423;-75
2023/01/28 02:06:08;;;;;;;;;21.75;18.25;;;;;;;;4877043;29;46404;-74
2023/01/28 02:08:34;;;;;;;;;16.25;16.25;;;;;;;;4861713;29;45387;-75
2023/01/28 02:11:04;;;;;;;;;21.75;18.50;;;;;;;;4876356;29;45330;-74
2023/01/28 02:13:32;;;;;;;;;24.25;23.25;;;;;;;;4875765;29;45366;-74
2023/01/28 02:15:58;;;;;;;;;24.75;22.50;;;;;;;;4875418;29;46299;-74
2023/01/28 02:18:24;;;;;;;;;26.75;19.50;;;;;;;;4876578;29;45350;-75
2023/01/28 02:20:49;;;;;;;;;19.75;17.00;;;;;;;;4877655;29;45313;-74
2023/01/28 02:23:21;;;;;;;;;18.75;18.75;;;;;;;;4877914;29;45385;-75
2023/01/28 02:25:52;;;;;;;;;21.75;19.00;;;;;;;;4878145;29;47154;-74
2023/01/28 02:28:38;;;;;;;;;13.50;12.75;;;;;;;;4877239;29;45348;-75
2023/01/28 02:31:09;;;;;;;;;20.50;19.25;;;;;;;;4877939;29;45450;-74
2023/01/28 02:33:39;;;;;;;;;19.50;19.50;;;;;;;;4877814;29;45548;-74
2023/01/28 02:36:12;;;;;;;;;21.50;15.50;;;;;;;;4877749;29;45547;-75
2023/01/28 02:38:41;;;;;;;;;18.75;18.75;;;;;;;;4877232;29;45553;-74
2023/01/28 02:41:10;;;;;;;;;18.00;17.75;;;;;;;;4878016;29;45517;-74
2023/01/28 02:43:37;;;;;;;;;30.50;23.25;;;;;;;;4879376;29;45418;-75
2023/01/28 02:49:25;;;;;;;;;19.75;19.50;;;;;;;;4880024;29;45305;-74
2023/01/28 02:52:09;;;;;;;;;12.25;12.00;;;;;;;;4888975;28;45402;-75
2023/01/28 02:54:37;;;;;;;;;19.00;17.25;;;;;;;;4910691;28;45227;-74
2023/01/28 02:57:05;;;;;;;;;23.25;20.75;;;;;;;;4898256;28;47043;-75
2023/01/28 02:59:35;;;;;;;;;29.50;22.50;;;;;;;;4898823;28;45434;-75
2023/01/28 03:02:09;;;;;;;;;27.75;20.00;;;;;;;;4899175;28;45306;-74
2023/01/28 03:04:40;;;;;;;;;21.00;16.75;;;;;;;;4897096;28;45366;-75
2023/01/28 03:07:07;;;;;;;;;22.50;21.25;;;;;;;;4892187;29;46322;-75
2023/01/28 03:09:34;;;;;;;;;25.00;19.25;;;;;;;;4882059;29;45541;-76
2023/01/28 03:37:50;;;;;;;;;27.50;21.50;;;;;;;;4879259;29;45398;-74
2023/01/28 03:40:17;;;;;;;;;21.50;18.50;;;;;;;;4889980;29;47368;-75
2023/01/28 03:42:42;;;;;;;;;20.25;17.75;;;;;;;;4878384;29;45366;-74
2023/01/28 03:45:08;;;;;;;;;22.00;20.50;;;;;;;;4879467;29;45462;-75
2023/01/28 03:47:33;;;;;;;;;26.50;20.75;;;;;;;;4881039;29;45260;-75
2023/01/28 03:49:59;;;;;;;;;27.00;21.50;;;;;;;;4882633;28;45659;-74
2023/01/28 03:52:31;;;;;;;;;26.25;21.00;;;;;;;;4903470;28;45428;-75
2023/01/28 03:54:56;;;;;;;;;25.25;21.75;;;;;;;;4914105;28;45371;-74
2023/01/28 03:57:23;;;;;;;;;26.50;23.00;;;;;;;;4888703;29;45405;-74
2023/01/28 03:59:48;;;;;;;;;32.00;21.25;;;;;;;;4917071;28;46268;-74
2023/01/28 04:02:14;;;;;;;;;19.50;19.50;;;;;;;;4915913;28;45534;-74
2023/01/28 04:04:40;;;;;;;;;24.75;24.00;;;;;;;;4892434;28;45808;-74
2023/01/28 04:07:07;;;;;;;;;26.75;21.75;;;;;;;;4882599;29;45479;-75
2023/01/28 04:09:33;;;;;;;;;22.75;17.75;;;;;;;;4892241;29;45323;-75
2023/01/28 04:11:58;;;;;;;;;27.75;22.75;;;;;;;;4882110;29;45373;-75
2023/01/28 04:14:23;;;;;;;;;18.50;16.00;;;;;;;;4882411;29;45446;-75
2023/01/28 04:16:49;;;;;;;;;25.00;21.75;;;;;;;;4882283;29;45659;-74
2023/01/28 04:19:14;;;;;;;;;22.25;19.75;;;;;;;;4882345;29;47290;-75
2023/01/28 04:21:40;;;;;;;;;16.25;16.25;;;;;;;;4896414;29;45542;-75
2023/01/28 04:24:05;;;;;;;;;22.75;21.00;;;;;;;;4882373;29;45939;-74
2023/01/28 04:26:30;;;;;;;;;22.00;19.75;;;;;;;;4882360;29;45363;-75
2023/01/28 04:28:55;;;;;;;;;20.50;14.50;;;;;;;;4889784;29;45529;-75
2023/01/28 04:31:22;;;;;;;;;22.75;22.00;;;;;;;;4885551;29;45428;-75
2023/01/28 04:33:47;;;;;;;;;19.00;15.25;;;;;;;;4893014;29;45350;-74
2023/01/28 04:36:12;;;;;;;;;23.50;20.50;;;;;;;;4891213;28;45560;-75
2023/01/28 04:38:38;;;;;;;;;26.25;18.50;;;;;;;;4886480;29;45419;-74
2023/01/28 04:41:03;;;;;;;;;25.50;21.50;;;;;;;;4888255;28;45354;-75
2023/01/28 04:43:28;;;;;;;;;20.75;18.00;;;;;;;;4882201;29;45283;-75
2023/01/28 04:45:53;;;;;;;;;16.50;14.00;;;;;;;;4882092;29;45267;-74
2023/01/28 04:48:18;;;;;;;;;23.25;21.75;;;;;;;;4882246;29;45305;-74
2023/01/28 04:50:44;;;;;;;;;26.00;23.00;;;;;;;;4883625;29;45576;-76
2023/01/28 04:53:10;;;;;;;;;22.25;20.75;;;;;;;;4912037;28;45415;-74
2023/01/28 04:55:35;;;;;;;;;22.75;21.00;;;;;;;;4902459;28;45292;-75
2023/01/28 04:58:00;;;;;;;;;21.75;21.75;;;;;;;;4901784;28;46306;-74
2023/01/28 05:00:26;;;;;;;;;25.75;23.75;;;;;;;;4900637;28;45356;-76
2023/01/28 05:02:51;;;;;;;;;22.25;19.00;;;;;;;;4896132;28;45406;-74
2023/01/28 05:05:16;;;;;;;;;27.00;24.00;;;;;;;;4901041;28;45278;-76
2023/01/28 05:07:41;;;;;;;;;29.00;21.75;;;;;;;;4900367;28;46136;-75
2023/01/28 05:10:07;;;;;;;;;19.50;19.00;;;;;;;;4900260;28;45424;-75
2023/01/28 05:12:33;;;;;;;;;24.75;24.50;;;;;;;;4896088;29;45346;-75
2023/01/28 05:15:01;;;;;;;;;29.00;22.75;;;;;;;;4888094;28;45499;-75
2023/01/28 05:17:27;;;;;;;;;21.75;20.00;;;;;;;;4895696;29;47240;-74
2023/01/28 05:19:52;;;;;;;;;25.50;24.00;;;;;;;;4893872;29;45431;-74
2023/01/28 05:22:17;;;;;;;;;26.25;22.50;;;;;;;;4899055;29;45350;-75
2023/01/28 05:24:42;;;;;;;;;29.50;23.75;;;;;;;;4894046;28;45429;-75
2023/01/28 05:27:08;;;;;;;;;32.75;26.25;;;;;;;;4887520;28;47113;-75
2023/01/28 05:29:33;;;;;;;;;28.75;26.50;;;;;;;;4881107;29;45376;-74
2023/01/28 05:31:58;;;;;;;;;27.00;25.00;;;;;;;;4881413;29;45356;-75
2023/01/28 05:34:23;;;;;;;;;30.50;23.00;;;;;;;;4881285;29;45306;-75
2023/01/28 05:36:49;;;;;;;;;22.25;19.00;;;;;;;;4883190;29;45332;-74
2023/01/28 05:39:14;;;;;;;;;26.50;26.50;;;;;;;;4889363;29;45364;-75
2023/01/28 05:41:39;;;;;;;;;24.50;23.00;;;;;;;;4895687;29;45298;-74
2023/01/28 05:44:04;;;;;;;;;20.75;18.50;;;;;;;;4881256;29;45304;-75
2023/01/28 05:46:29;;;;;;;;;27.00;22.25;;;;;;;;4899282;29;45277;-74
2023/01/28 05:48:55;;;;;;;;;22.75;21.25;;;;;;;;4899781;28;45461;-75
2023/01/28 05:51:20;;;;;;;;;27.75;26.25;;;;;;;;4899870;28;45314;-74
2023/01/28 05:53:45;;;;;;;;;31.00;27.00;;;;;;;;4899763;28;45446;-74
2023/01/28 05:56:10;;;;;;;;;26.75;23.00;;;;;;;;4899713;28;46627;-75
2023/01/28 05:58:35;;;;;;;;;25.75;23.25;;;;;;;;4899552;28;45449;-75
2023/01/28 06:01:01;;;;;;;;;30.75;24.50;;;;;;;;4899894;28;45484;-74
2023/01/28 06:03:26;;;;;;;;;22.25;21.25;;;;;;;;4899874;28;45420;-75
2023/01/28 06:05:51;;;;;;;;;31.25;24.75;;;;;;;;4899465;28;45514;-75
2023/01/28 06:08:16;;;;;;;;;25.00;25.00;;;;;;;;4899978;28;45502;-75
2023/01/28 06:10:42;;;;;;;;;23.00;22.25;;;;;;;;4899616;28;45370;-74
2023/01/28 06:13:07;;;;;;;;;26.75;24.00;;;;;;;;4899835;28;45315;-75
2023/01/28 06:15:32;;;;;;;;;25.50;20.75;;;;;;;;4899404;28;45397;-74
2023/01/28 06:17:58;;;;;;;;;27.50;21.25;;;;;;;;4900178;28;46680;-74
2023/01/28 06:20:23;;;;;;;;;26.25;24.00;;;;;;;;4918459;28;45338;-74
2023/01/28 06:22:51;;;;;;;;;28.50;23.50;;;;;;;;4918559;28;45588;-75
2023/01/28 06:25:17;;;;;;;;;32.25;24.50;;;;;;;;4918324;28;46695;-74
2023/01/28 06:27:42;;;;;;;;;31.25;25.50;;;;;;;;4917959;28;45331;-75
2023/01/28 06:30:07;;;;;;;;;29.50;26.00;;;;;;;;4918441;28;45612;-75
2023/01/28 06:32:33;;;;;;;;;22.50;21.25;;;;;;;;4918270;28;45375;-75
2023/01/28 06:34:58;;;;;;;;;20.25;19.00;;;;;;;;4918042;28;45856;-75
2023/01/28 06:37:23;;;;;;;;;32.00;25.50;;;;;;;;4918168;28;45621;-74
2023/01/28 06:39:49;;;;;;;;;26.25;23.25;;;;;;;;4918145;28;45632;-75
2023/01/28 06:42:14;;;;;;;;;32.00;24.50;;;;;;;;4917876;28;45364;-75
2023/01/28 06:44:39;;;;;;;;;26.75;22.00;;;;;;;;4917995;28;45979;-75
2023/01/28 06:47:04;;;;;;;;;27.50;24.75;;;;;;;;4917720;28;45347;-74
2023/01/28 06:49:29;;;;;;;;;22.75;20.50;;;;;;;;4918284;28;45335;-75
2023/01/28 06:51:55;;;;;;;;;31.25;27.75;;;;;;;;4917811;28;45286;-75
2023/01/28 06:54:20;;;;;;;;;22.25;20.75;;;;;;;;4917675;28;46419;-75
2023/01/28 06:56:45;;;;;;;;;26.00;19.50;;;;;;;;4917635;28;45331;-75
2023/01/28 06:59:10;;;;;;;;;19.50;19.25;;;;;;;;4917978;28;45278;-75
2023/01/28 07:01:35;;;;;;;;;21.25;21.25;;;;;;;;4917887;28;45263;-74
2023/01/28 07:04:01;;;;;;;;;19.00;18.50;;;;;;;;4917706;28;46278;-75
2023/01/28 07:06:26;;;;;;;;;21.25;19.75;;;;;;;;4917664;28;45350;-75
2023/01/28 07:08:51;;;;;;;;;25.50;23.00;;;;;;;;4918085;28;45402;-75
2023/01/28 07:11:16;;;;;;;;;14.25;12.75;;;;;;;;4917679;28;45283;-75
2023/01/28 07:13:42;;;;;;;;;21.25;20.25;;;;;;;;4917395;28;46031;-75
2023/01/28 07:16:07;;;;;;;;;21.50;18.50;;;;;;;;4917689;28;45255;-75
2023/01/28 07:18:33;;;;;;;;;23.25;21.00;;;;;;;;4917848;28;45494;-75
2023/01/28 07:20:58;;;;;;;;;19.00;17.50;;;;;;;;4917763;28;45427;-75
2023/01/28 07:23:23;;;;;;;;;21.00;19.25;;;;;;;;4920684;28;45472;-75
2023/01/28 07:25:48;;;;;;;;;21.75;20.00;;;;;;;;4919237;28;45302;-75
2023/01/28 07:28:20;;;;;;;;;25.25;22.00;;;;;;;;4920903;28;45335;-75
2023/01/28 07:30:45;;;;;;;;;22.50;21.25;;;;;;;;4920905;28;45279;-75
2023/01/28 07:33:10;;;;;;;;;25.00;22.25;;;;;;;;4920529;28;47444;-74
2023/01/28 07:35:35;;;;;;;;;22.00;22.00;;;;;;;;4920643;28;45350;-74
2023/01/28 07:38:00;;;;;;;;;22.75;19.75;;;;;;;;4920780;28;45362;-74
2023/01/28 07:40:26;;;;;;;;;27.25;24.25;;;;;;;;4919543;28;45525;-75
2023/01/28 07:42:54;;;;;;;;;18.75;18.75;;;;;;;;4920660;28;46338;-75
2023/01/28 07:45:19;;;;;;;;;26.25;23.75;;;;;;;;4920260;28;45342;-76
2023/01/28 07:47:51;;;;;;;;;23.00;19.00;;;;;;;;4919070;28;45507;-76
2023/01/28 07:50:17;;;;;;;;;22.75;17.00;;;;;;;;4920556;28;45367;-75
2023/01/28 07:52:43;;;;;;;;;24.50;21.25;;;;;;;;4909533;28;45455;-73
2023/01/28 07:55:09;;;;;;;;;22.00;21.75;;;;;;;;4899319;29;45371;-74
2023/01/28 07:57:34;;;;;;;;;19.50;17.50;;;;;;;;4901077;28;45342;-73
2023/01/28 07:59:59;;;;;;;;;26.25;21.25;;;;;;;;4899222;28;45502;-74
2023/01/28 08:02:24;;;;;;;;;20.25;19.25;;;;;;;;4898706;28;46639;-74
2023/01/28 08:04:50;;;;;;;;;23.25;20.25;;;;;;;;4898641;29;45284;-74
2023/01/28 08:07:15;;;;;;;;;26.25;19.25;;;;;;;;4884011;29;45537;-75
2023/01/28 08:09:40;;;;;;;;;26.25;21.00;;;;;;;;4883083;29;45350;-74
2023/01/28 08:12:05;;;;;;;;;24.25;21.50;;;;;;;;4884179;29;45472;-75
2023/01/28 08:14:30;;;;;;;;;25.75;23.25;;;;;;;;4892784;28;45370;-74
2023/01/28 08:16:56;;;;;;;;;25.00;23.25;;;;;;;;4882706;28;45422;-75
2023/01/28 08:19:21;;;;;;;;;28.75;24.50;;;;;;;;4882292;29;45361;-75
2023/01/28 08:21:47;;;;;;;;;22.50;20.00;;;;;;;;4880185;29;47280;-75
2023/01/28 08:24:12;;;;;;;;;26.50;21.50;;;;;;;;4882027;29;45364;-75
2023/01/28 08:26:37;;;;;;;;;30.25;25.50;;;;;;;;4888770;29;45507;-75
2023/01/28 08:29:03;;;;;;;;;30.00;26.00;;;;;;;;4885509;29;45411;-75
2023/01/28 08:31:28;;;;;;;;;23.00;19.50;;;;;;;;4881762;29;45392;-74
2023/01/28 08:33:53;;;;;;;;;24.00;20.25;;;;;;;;4881497;29;45428;-75
2023/01/28 08:36:19;;;;;;;;;32.00;27.00;;;;;;;;4881803;29;45304;-75
2023/01/28 08:38:44;;;;;;;;;24.50;23.50;;;;;;;;4882073;29;45344;-75
2023/01/28 08:41:09;;;;;;;;;24.25;23.25;;;;;;;;4889807;29;45544;-75
2023/01/28 08:43:34;;;;;;;;;22.50;18.25;;;;;;;;4886581;29;45780;-75
2023/01/28 08:45:59;;;;;;;;;33.00;29.25;;;;;;;;4893317;29;45380;-75
2023/01/28 08:48:25;;;;;;;;;34.50;33.75;;;;;;;;4899488;29;45476;-75
2023/01/28 08:50:50;;;;;;;;;22.25;21.25;;;;;;;;4898518;29;47739;-75
2023/01/28 08:53:19;;;;;;;;;28.50;26.75;;;;;;;;4915603;28;45564;-75
2023/01/28 08:55:45;;;;;;;;;36.25;25.75;;;;;;;;4919577;28;45383;-74
2023/01/28 08:58:12;;;;;;;;;31.50;31.50;;;;;;;;4919438;28;45520;-74
2023/01/28 09:00:38;;;;;;;;;25.75;21.50;;;;;;;;4919582;28;46422;-76
2023/01/28 09:03:03;;;;;;;;;37.00;28.25;;;;;;;;4895238;28;45665;-77
2023/01/28 09:05:30;;;;;;;;;22.75;19.00;;;;;;;;4881313;28;45358;-76
2023/01/28 09:07:56;;;;;;;;;30.50;25.00;;;;;;;;4881817;29;45463;-76
2023/01/28 09:10:21;;;;;;;;;19.00;19.00;;;;;;;;4888994;29;46109;-76
2023/01/28 09:12:46;;;;;;;;;29.50;27.00;;;;;;;;4896123;29;46301;-76
2023/01/28 09:15:12;;;;;;;;;29.50;28.00;;;;;;;;4882795;29;45392;-76
2023/01/28 09:17:37;;;;;;;;;29.00;23.00;;;;;;;;4890741;29;45296;-76
2023/01/28 09:20:03;;;;;;;;;29.50;26.00;;;;;;;;4880857;29;45308;-76
2023/01/28 09:22:28;;;;;;;;;26.50;24.75;;;;;;;;4883270;29;45410;-76
2023/01/28 09:24:54;;;;;;;;;25.25;25.25;;;;;;;;4882512;29;45273;-77
2023/01/28 09:27:19;;;;;;;;;36.75;33.50;;;;;;;;4881203;29;45474;-77
2023/01/28 09:29:44;;;;;;;;;20.75;15.75;;;;;;;;4887738;29;46640;-74
2023/01/28 09:32:09;;;;;;;;;20.00;18.00;;;;;;;;4900752;28;45312;-75
2023/01/28 09:34:35;;;;;;;;;27.25;22.50;;;;;;;;4900221;28;45284;-74
2023/01/28 09:37:00;;;;;;;;;26.00;23.50;;;;;;;;4899922;29;45511;-74
2023/01/28 09:39:27;;;;;;;;;22.00;20.50;;;;;;;;4899142;28;46809;-74
2023/01/28 09:41:55;;;;;;;;;17.75;16.00;;;;;;;;4890465;29;45399;-74
2023/01/28 09:44:23;;;;;;;;;28.75;21.25;;;;;;;;4880526;29;45502;-74
2023/01/28 09:46:49;;;;;;;;;27.00;23.75;;;;;;;;4883740;29;45485;-75
2023/01/28 09:49:20;;;;;;;;;24.75;23.00;;;;;;;;4881467;29;46267;-74
2023/01/28 09:51:51;;;;;;;;;20.75;19.00;;;;;;;;4903232;28;45268;-74
2023/01/28 09:54:26;;;;;;;;;20.00;19.00;;;;;;;;4919871;28;45410;-77
2023/01/28 09:56:55;;;;;;;;;20.25;17.25;;;;;;;;4919632;28;45436;-76
2023/01/28 09:59:21;;;;;;;;;30.25;25.00;;;;;;;;4918012;28;46118;-75
2023/01/28 10:01:51;;;;;;;;;19.25;15.00;;;;;;;;4919051;28;45358;-76
2023/01/28 10:04:22;;;;;;;;;28.25;23.50;;;;;;;;4919234;28;45306;-75
2023/01/28 10:06:56;;;;;;;;;24.00;20.25;;;;;;;;4918705;28;45358;-77
2023/01/28 10:09:24;;;;;;;;;28.25;23.00;;;;;;;;4918746;28;45323;-76
2023/01/28 10:12:13;;;;;;;;;29.50;23.00;;;;;;;;4918783;28;45316;-76
2023/01/28 10:14:41;;;;;;;;;27.75;24.75;;;;;;;;4918958;28;45384;-76
2023/01/28 10:17:09;;;;;;;;;20.25;19.50;;;;;;;;4918815;28;45584;-75
2023/01/28 10:19:39;;;;;;;;;22.75;17.25;;;;;;;;4918505;28;47269;-76
2023/01/28 10:22:08;;;;;;;;;20.50;16.00;;;;;;;;4918384;28;45464;-76
2023/01/28 10:24:35;;;;;;;;;29.00;19.25;;;;;;;;4918317;28;45286;-75
2023/01/28 10:27:02;;;;;;;;;27.00;21.75;;;;;;;;4918312;28;45369;-74
2023/01/28 10:29:31;;;;;;;;;29.25;26.75;;;;;;;;4918540;28;45477;-73
2023/01/28 10:32:16;;;;;;;;;26.75;24.75;;;;;;;;4917243;28;45378;-76
2023/01/28 10:34:41;;;;;;;;;28.50;25.00;;;;;;;;4918429;28;45454;-77
2023/01/28 10:37:08;;;;;;;;;20.00;19.25;;;;;;;;4918231;28;45430;-75
2023/01/28 10:39:33;;;;;;;;;25.75;25.75;;;;;;;;4918533;28;45671;-75
2023/01/28 10:41:59;;;;;;;;;24.75;23.25;;;;;;;;4918479;28;45271;-75
2023/01/28 10:44:44;;;;;;;;;22.00;22.00;;;;;;;;4918863;28;45392;-74
2023/01/28 10:47:13;;;;;;;;;38.75;32.25;;;;;;;;4917772;28;45331;-74
2023/01/28 10:49:44;;;;;;;;;24.25;23.00;;;;;;;;4918420;28;45387;-75
2023/01/28 10:52:11;;;;;;;;;26.25;24.25;;;;;;;;4918543;28;45246;-75
2023/01/28 10:54:36;;;;;;;;;25.50;23.25;;;;;;;;4918802;28;45353;-75
2023/01/28 10:57:03;;;;;;;;;25.50;21.75;;;;;;;;4916727;28;45359;-75
2023/01/28 10:59:29;;;;;;;;;28.75;26.00;;;;;;;;4918565;28;45378;-76
2023/01/28 11:01:54;;;;;;;;;28.25;22.50;;;;;;;;4918641;28;45318;-74
2023/01/28 11:04:28;;;;;;;;;34.00;31.50;;;;;;;;4919176;28;45342;-75
2023/01/28 11:07:04;;;;;;;;;26.00;25.25;;;;;;;;4920415;28;45330;-75
2023/01/28 11:09:31;;;;;;;;;30.25;27.50;;;;;;;;4920259;28;45446;-75
2023/01/28 11:11:57;;;;;;;;;23.25;21.00;;;;;;;;4911304;28;45293;-75
2023/01/28 11:14:24;;;;;;;;;32.00;31.25;;;;;;;;4901004;28;45336;-76
2023/01/28 11:16:51;;;;;;;;;26.00;20.25;;;;;;;;4899288;28;45465;-75
2023/01/28 11:19:18;;;;;;;;;28.50;25.75;;;;;;;;4899408;28;45399;-75
2023/01/28 11:21:47;;;;;;;;;30.00;29.00;;;;;;;;4898858;28;45365;-74
2023/01/28 11:24:14;;;;;;;;;11.50;8.00;;;;;;;;4898839;28;45330;-75
2023/01/28 11:26:43;;;;;;;;;23.50;20.75;;;;;;;;4898921;28;45324;-76
2023/01/28 11:29:22;;;;;;;;;22.00;19.25;;;;;;;;4898387;28;46237;-75
2023/01/28 11:31:48;;;;;;;;;24.50;23.25;;;;;;;;4898533;28;45271;-76
2023/01/28 11:34:17;;;;;;;;;21.75;20.50;;;;;;;;4898636;28;45372;-75
2023/01/28 11:36:53;;;;;;;;;30.25;29.25;;;;;;;;4898676;28;45295;-75
2023/01/28 11:39:24;;;;;;;;;35.00;24.75;;;;;;;;4898676;28;46175;-75
2023/01/28 11:41:50;;;;;;;;;26.75;24.00;;;;;;;;4898839;28;45353;-75
2023/01/28 11:44:25;;;;;;;;;26.00;24.75;;;;;;;;4897603;29;45413;-75
2023/01/28 11:46:56;;;;;;;;;26.75;25.50;;;;;;;;4897471;29;45382;-75
2023/01/28 11:49:31;;;;;;;;;26.00;22.25;;;;;;;;4897396;29;45747;-76
2023/01/28 11:51:59;;;;;;;;;22.50;21.00;;;;;;;;4903501;28;45307;-75
2023/01/28 11:54:32;;;;;;;;;28.25;23.00;;;;;;;;4917452;28;45527;-76
2023/01/28 11:57:00;;;;;;;;;20.00;18.25;;;;;;;;4918126;28;45228;-75
2023/01/28 11:59:25;;;;;;;;;18.25;17.75;;;;;;;;4917337;28;45688;-76
2023/01/28 12:01:56;;;;;;;;;25.75;24.25;;;;;;;;4917939;28;45361;-76
2023/01/28 12:04:31;;;;;;;;;33.00;30.50;;;;;;;;4919517;28;45418;-75
2023/01/28 12:07:02;;;;;;;;;27.00;25.50;;;;;;;;4916449;28;45369;-76
2023/01/28 12:09:34;;;;;;;;;29.25;26.00;;;;;;;;4920858;28;46222;-74
2023/01/28 12:12:18;;;;;;;;;28.00;27.00;;;;;;;;4921246;28;45406;-75
2023/01/28 12:14:55;;;;;;;;;29.75;23.50;;;;;;;;4921010;28;45546;-75
2023/01/28 12:17:24;;;;;;;;;22.25;17.75;;;;;;;;4919745;28;45398;-75
2023/01/28 12:20:07;;;;;;;;;32.75;30.00;;;;;;;;4920778;28;46058;-75
2023/01/28 12:22:33;;;;;;;;;26.00;22.25;;;;;;;;4920705;28;45366;-75
2023/01/28 12:25:13;;;;;;;;;24.25;21.50;;;;;;;;4919444;28;45358;-75
2023/01/28 12:28:01;;;;;;;;;24.25;22.25;;;;;;;;4920914;28;45247;-76
2023/01/28 12:30:37;;;;;;;;;19.00;15.50;;;;;;;;4920255;28;46126;-75
2023/01/28 12:33:14;;;;;;;;;31.25;28.00;;;;;;;;4919128;28;45488;-75
2023/01/28 12:35:43;;;;;;;;;27.25;23.25;;;;;;;;4919240;28;45415;-75
2023/01/28 12:38:21;;;;;;;;;37.25;34.25;;;;;;;;4921075;28;45424;-75
2023/01/28 12:41:05;;;;;;;;;26.25;21.50;;;;;;;;4920722;28;46048;-74
2023/01/28 12:43:33;;;;;;;;;23.00;22.00;;;;;;;;4920302;28;45400;-74
2023/01/28 12:46:03;;;;;;;;;23.25;18.00;;;;;;;;4920695;28;45342;-74
2023/01/28 12:48:33;;;;;;;;;25.25;22.00;;;;;;;;4919393;28;45383;-76
2023/01/28 12:51:03;;;;;;;;;20.75;17.25;;;;;;;;4920613;28;46189;-74
2023/01/28 12:53:35;;;;;;;;;32.25;21.25;;;;;;;;4919852;28;45406;-74
2023/01/28 12:56:14;;;;;;;;;31.00;27.25;;;;;;;;4919582;28;45417;-74
2023/01/28 12:58:52;;;;;;;;;27.25;25.50;;;;;;;;4919486;28;45282;-73
2023/01/28 13:01:21;;;;;;;;;19.25;16.00;;;;;;;;4919495;28;46152;-75
2023/01/28 13:03:46;;;;;;;;;23.25;20.75;;;;;;;;4917852;28;45393;-74
2023/01/28 13:06:14;;;;;;;;;21.75;20.50;;;;;;;;4919497;28;45410;-74
2023/01/28 13:08:39;;;;;;;;;23.25;22.25;;;;;;;;4919812;28;45157;-74
2023/01/28 13:11:06;;;;;;;;;30.25;23.50;;;;;;;;4919273;28;45383;-74
2023/01/28 13:13:32;;;;;;;;;23.75;21.00;;;;;;;;4919246;28;45454;-74
2023/01/28 13:15:58;;;;;;;;;25.75;20.25;;;;;;;;4919441;28;45395;-74
2023/01/28 13:18:38;;;;;;;;;23.75;19.25;;;;;;;;4919068;28;45333;-75
2023/01/28 13:21:07;;;;;;;;;33.50;27.50;;;;;;;;4918433;28;46135;-74
2023/01/28 13:23:41;;;;;;;;;32.00;29.50;;;;;;;;4919064;28;45386;-75
2023/01/28 13:26:09;;;;;;;;;18.75;16.00;;;;;;;;4917925;28;45477;-74
2023/01/28 13:28:34;;;;;;;;;23.75;18.75;;;;;;;;4919232;28;45279;-74
2023/01/28 13:31:01;;;;;;;;;26.50;22.00;;;;;;;;4918981;28;45435;-75
2023/01/28 13:33:30;;;;;;;;;33.25;23.50;;;;;;;;4918890;28;45310;-74
2023/01/28 13:35:57;;;;;;;;;27.75;23.75;;;;;;;;4918861;28;45446;-74
2023/01/28 13:38:23;;;;;;;;;19.25;19.25;;;;;;;;4918829;28;45493;-74
2023/01/28 13:40:53;;;;;;;;;21.50;18.50;;;;;;;;4918607;28;46177;-74
2023/01/28 13:43:26;;;;;;;;;22.25;19.25;;;;;;;;4917622;28;45420;-74
2023/01/28 13:45:58;;;;;;;;;16.50;16.50;;;;;;;;4918853;28;45328;-74
2023/01/28 13:48:24;;;;;;;;;29.00;26.00;;;;;;;;4918690;28;45363;-74
2023/01/28 13:50:51;;;;;;;;;29.00;25.25;;;;;;;;4918737;28;46205;-73
2023/01/28 13:53:16;;;;;;;;;25.25;18.00;;;;;;;;4919106;28;45336;-74
2023/01/28 13:55:44;;;;;;;;;29.00;26.75;;;;;;;;4918622;28;45393;-73
2023/01/28 13:58:18;;;;;;;;;29.25;24.25;;;;;;;;4919227;28;45234;-73
2023/01/28 14:01:02;;;;;;;;;25.25;22.00;;;;;;;;4919054;28;45303;-76
2023/01/28 14:03:33;;;;;;;;;31.50;26.50;;;;;;;;4920428;28;45282;-74
2023/01/28 14:06:12;;;;;;;;;29.75;23.00;;;;;;;;4921067;28;45414;-76
2023/01/28 14:08:37;;;;;;;;;21.25;20.75;;;;;;;;4882888;29;45237;-76
2023/01/28 14:11:21;;;;;;;;;28.25;25.25;;;;;;;;4881495;29;45450;-76
2023/01/28 14:13:49;;;;;;;;;23.75;19.25;;;;;;;;4880700;29;45277;-76
2023/01/28 14:16:28;;;;;;;;;32.25;24.00;;;;;;;;4880439;29;45318;-77
2023/01/28 14:18:55;;;;;;;;;28.75;26.00;;;;;;;;4878943;29;45626;-76
2023/01/28 14:21:21;;;;;;;;;21.50;20.00;;;;;;;;4880297;29;45320;-76
2023/01/28 14:23:56;;;;;;;;;29.00;26.75;;;;;;;;4879999;29;45414;-76
2023/01/28 14:26:24;;;;;;;;;30.00;25.50;;;;;;;;4880410;29;45288;-76
2023/01/28 14:29:15;;;;;;;;;30.00;24.50;;;;;;;;4879995;29;45304;-76
2023/01/28 14:31:40;;;;;;;;;26.00;22.50;;;;;;;;4878931;29;47527;-77
2023/01/28 14:34:28;;;;;;;;;24.50;22.50;;;;;;;;4880337;29;45410;-75
2023/01/28 14:36:56;;;;;;;;;26.00;20.50;;;;;;;;4879235;29;45368;-74
2023/01/28 14:39:23;;;;;;;;;21.75;20.25;;;;;;;;4879938;29;45662;-75
2023/01/28 14:41:51;;;;;;;;;25.75;23.00;;;;;;;;4879960;29;46264;-74
2023/01/28 14:44:42;;;;;;;;;36.75;31.75;;;;;;;;4880341;29;45319;-75
2023/01/28 14:47:16;;;;;;;;;30.00;24.50;;;;;;;;4879271;29;45394;-75
2023/01/28 14:49:54;;;;;;;;;27.00;21.50;;;;;;;;4878755;29;45384;-74